sensor_id;sensor_type;location;lat;lon;timestamp;pressure;altitude;pressure_sealevel;temperature;humidity
21096;BME280;10706;49.036;12.112;2024-02-23T00:00:42;95573.44;;;10.71;84.99
21096;BME280;10706;49.036;12.112;2024-02-23T00:03:08;95561.22;;;11.03;82.46
21096;BME280;10706;49.036;12.112;2024-02-23T00:05:34;95558.25;;;11.04;82.95
21096;BME280;10706;49.036;12.112;2024-02-23T00:07:59;95562.16;;;10.93;83.12
21096;BME280;10706;49.036;12.112;2024-02-23T00:10:25;95559.53;;;11.07;82.03
21096;BME280;10706;49.036;12.112;2024-02-23T00:12:51;95585.44;;;11.06;81.63
21096;BME280;10706;49.036;12.112;2024-02-23T00:15:17;95583.59;;;10.50;82.84
21096;BME280;10706;49.036;12.112;2024-02-23T00:17:43;95587.28;;;10.73;80.41
21096;BME280;10706;49.036;12.112;2024-02-23T00:20:10;95591.03;;;10.72;81.54
21096;BME280;10706;49.036;12.112;2024-02-23T00:22:40;95592.69;;;10.49;80.71
21096;BME280;10706;49.036;12.112;2024-02-23T00:25:06;95600.19;;;10.47;80.93
21096;BME280;10706;49.036;12.112;2024-02-23T00:27:32;95594.78;;;10.28;78.25
21096;BME280;10706;49.036;12.112;2024-02-23T00:29:57;95593.00;;;10.85;78.74
21096;BME280;10706;49.036;12.112;2024-02-23T00:32:23;95605.91;;;10.78;79.60
21096;BME280;10706;49.036;12.112;2024-02-23T00:34:49;95603.94;;;10.84;78.69
21096;BME280;10706;49.036;12.112;2024-02-23T00:37:15;95609.13;;;10.56;79.16
21096;BME280;10706;49.036;12.112;2024-02-23T00:39:40;95622.97;;;10.39;79.67
21096;BME280;10706;49.036;12.112;2024-02-23T00:42:06;95631.94;;;10.67;79.07
21096;BME280;10706;49.036;12.112;2024-02-23T00:44:33;95628.03;;;10.79;78.34
21096;BME280;10706;49.036;12.112;2024-02-23T00:46:58;95632.47;;;10.45;79.31
21096;BME280;10706;49.036;12.112;2024-02-23T00:49:27;95633.44;;;10.55;78.28
21096;BME280;10706;49.036;12.112;2024-02-23T00:51:54;95642.31;;;10.50;79.98
21096;BME280;10706;49.036;12.112;2024-02-23T00:54:21;95649.22;;;10.27;79.67
21096;BME280;10706;49.036;12.112;2024-02-23T00:56:47;95652.88;;;10.98;77.93
21096;BME280;10706;49.036;12.112;2024-02-23T00:59:13;95653.44;;;11.14;77.28
21096;BME280;10706;49.036;12.112;2024-02-23T01:01:38;95662.75;;;10.98;78.27
21096;BME280;10706;49.036;12.112;2024-02-23T01:04:04;95660.59;;;11.19;76.80
21096;BME280;10706;49.036;12.112;2024-02-23T01:06:30;95669.31;;;11.43;76.50
21096;BME280;10706;49.036;12.112;2024-02-23T01:08:56;95662.44;;;11.18;76.25
21096;BME280;10706;49.036;12.112;2024-02-23T01:11:21;95669.59;;;11.23;77.01
21096;BME280;10706;49.036;12.112;2024-02-23T01:13:47;95675.59;;;11.34;77.04
21096;BME280;10706;49.036;12.112;2024-02-23T01:16:13;95681.88;;;11.24;77.52
21096;BME280;10706;49.036;12.112;2024-02-23T01:18:38;95681.94;;;10.81;77.73
21096;BME280;10706;49.036;12.112;2024-02-23T01:21:04;95684.75;;;10.89;77.53
21096;BME280;10706;49.036;12.112;2024-02-23T01:23:30;95689.38;;;11.03;77.88
21096;BME280;10706;49.036;12.112;2024-02-23T01:25:56;95695.38;;;10.95;78.64
21096;BME280;10706;49.036;12.112;2024-02-23T01:28:24;95701.44;;;11.19;77.87
21096;BME280;10706;49.036;12.112;2024-02-23T01:30:50;95695.59;;;10.98;78.69
21096;BME280;10706;49.036;12.112;2024-02-23T01:33:16;95745.78;;;10.77;80.06
21096;BME280;10706;49.036;12.112;2024-02-23T01:35:41;95726.00;;;9.71;77.21
21096;BME280;10706;49.036;12.112;2024-02-23T01:38:07;95763.44;;;8.26;82.00
21096;BME280;10706;49.036;12.112;2024-02-23T01:40:33;95774.94;;;7.85;82.16
21096;BME280;10706;49.036;12.112;2024-02-23T01:43:05;95765.88;;;7.66;84.05
21096;BME280;10706;49.036;12.112;2024-02-23T01:45:31;95758.41;;;7.32;82.96
21096;BME280;10706;49.036;12.112;2024-02-23T01:47:58;95771.09;;;7.09;83.93
21096;BME280;10706;49.036;12.112;2024-02-23T01:50:26;95772.44;;;7.07;84.67
21096;BME280;10706;49.036;12.112;2024-02-23T01:52:53;95765.00;;;7.04;85.15
21096;BME280;10706;49.036;12.112;2024-02-23T01:55:20;95762.84;;;6.95;86.33
21096;BME280;10706;49.036;12.112;2024-02-23T01:57:47;95762.28;;;6.88;85.25
21096;BME280;10706;49.036;12.112;2024-02-23T02:00:17;95770.25;;;6.88;85.19
21096;BME280;10706;49.036;12.112;2024-02-23T02:02:44;95782.41;;;6.74;85.29
21096;BME280;10706;49.036;12.112;2024-02-23T02:05:10;95784.19;;;6.58;85.62
21096;BME280;10706;49.036;12.112;2024-02-23T02:07:37;95779.75;;;6.79;85.87
21096;BME280;10706;49.036;12.112;2024-02-23T02:10:06;95777.59;;;6.66;86.17
21096;BME280;10706;49.036;12.112;2024-02-23T02:12:33;95771.84;;;6.84;85.66
21096;BME280;10706;49.036;12.112;2024-02-23T02:14:59;95775.03;;;6.86;85.27
21096;BME280;10706;49.036;12.112;2024-02-23T02:17:27;95771.91;;;7.05;85.25
21096;BME280;10706;49.036;12.112;2024-02-23T02:19:53;95777.53;;;7.39;84.03
21096;BME280;10706;49.036;12.112;2024-02-23T02:22:19;95777.72;;;6.96;83.43
21096;BME280;10706;49.036;12.112;2024-02-23T02:24:45;95795.06;;;7.35;84.10
21096;BME280;10706;49.036;12.112;2024-02-23T02:27:14;95800.25;;;6.94;83.38
21096;BME280;10706;49.036;12.112;2024-02-23T02:29:40;95795.03;;;7.19;83.03
21096;BME280;10706;49.036;12.112;2024-02-23T02:32:06;95799.28;;;7.26;80.68
21096;BME280;10706;49.036;12.112;2024-02-23T02:34:32;95804.84;;;7.19;82.73
21096;BME280;10706;49.036;12.112;2024-02-23T02:36:57;95820.19;;;7.07;82.51
21096;BME280;10706;49.036;12.112;2024-02-23T02:39:23;95825.81;;;7.15;82.26
21096;BME280;10706;49.036;12.112;2024-02-23T02:41:49;95837.97;;;7.11;81.06
21096;BME280;10706;49.036;12.112;2024-02-23T02:44:15;95839.50;;;7.75;80.99
21096;BME280;10706;49.036;12.112;2024-02-23T02:46:41;95838.88;;;7.43;81.76
21096;BME280;10706;49.036;12.112;2024-02-23T02:49:07;95846.38;;;7.61;79.57
21096;BME280;10706;49.036;12.112;2024-02-23T02:51:33;95846.09;;;7.47;79.59
21096;BME280;10706;49.036;12.112;2024-02-23T02:53:59;95861.72;;;7.38;81.15
21096;BME280;10706;49.036;12.112;2024-02-23T02:56:25;95863.63;;;7.64;79.50
21096;BME280;10706;49.036;12.112;2024-02-23T02:58:50;95869.19;;;7.52;79.33
21096;BME280;10706;49.036;12.112;2024-02-23T03:01:16;95871.88;;;7.67;79.49
21096;BME280;10706;49.036;12.112;2024-02-23T03:03:42;95866.81;;;7.66;79.61
21096;BME280;10706;49.036;12.112;2024-02-23T03:06:08;95870.25;;;7.51;78.70
21096;BME280;10706;49.036;12.112;2024-02-23T03:08:33;95877.63;;;7.33;78.57
21096;BME280;10706;49.036;12.112;2024-02-23T03:10:59;95887.56;;;7.00;80.66
21096;BME280;10706;49.036;12.112;2024-02-23T03:13:25;95890.38;;;7.36;79.53
21096;BME280;10706;49.036;12.112;2024-02-23T03:15:51;95892.22;;;7.31;78.82
21096;BME280;10706;49.036;12.112;2024-02-23T03:18:16;95893.59;;;7.49;79.74
21096;BME280;10706;49.036;12.112;2024-02-23T03:20:42;95897.13;;;7.01;80.02
21096;BME280;10706;49.036;12.112;2024-02-23T03:23:08;95908.53;;;7.81;78.29
21096;BME280;10706;49.036;12.112;2024-02-23T03:25:34;95897.16;;;7.95;77.66
21096;BME280;10706;49.036;12.112;2024-02-23T03:28:00;95892.03;;;7.53;77.86
21096;BME280;10706;49.036;12.112;2024-02-23T03:30:26;95900.38;;;7.14;79.25
21096;BME280;10706;49.036;12.112;2024-02-23T03:32:51;95905.22;;;7.37;77.56
21096;BME280;10706;49.036;12.112;2024-02-23T03:35:17;95911.63;;;7.36;77.92
21096;BME280;10706;49.036;12.112;2024-02-23T03:37:43;95914.13;;;7.00;79.03
21096;BME280;10706;49.036;12.112;2024-02-23T03:40:09;95912.50;;;6.99;79.81
21096;BME280;10706;49.036;12.112;2024-02-23T03:42:36;95912.56;;;7.10;79.09
21096;BME280;10706;49.036;12.112;2024-02-23T03:45:02;95910.97;;;7.09;78.19
21096;BME280;10706;49.036;12.112;2024-02-23T03:47:28;95906.97;;;7.79;76.23
21096;BME280;10706;49.036;12.112;2024-02-23T03:49:54;95919.97;;;7.86;75.62
21096;BME280;10706;49.036;12.112;2024-02-23T03:52:20;95922.16;;;7.16;78.93
21096;BME280;10706;49.036;12.112;2024-02-23T03:54:46;95917.34;;;7.91;77.13
21096;BME280;10706;49.036;12.112;2024-02-23T03:57:11;95917.66;;;8.21;75.86
21096;BME280;10706;49.036;12.112;2024-02-23T03:59:37;95920.81;;;8.12;75.83
21096;BME280;10706;49.036;12.112;2024-02-23T04:02:04;95920.56;;;7.98;75.97
21096;BME280;10706;49.036;12.112;2024-02-23T04:04:30;95934.63;;;7.99;75.61
21096;BME280;10706;49.036;12.112;2024-02-23T04:06:55;95927.09;;;7.55;77.98
21096;BME280;10706;49.036;12.112;2024-02-23T04:09:21;95926.34;;;7.70;76.75
21096;BME280;10706;49.036;12.112;2024-02-23T04:11:48;95933.91;;;7.30;78.06
21096;BME280;10706;49.036;12.112;2024-02-23T04:14:14;95921.31;;;7.78;75.91
21096;BME280;10706;49.036;12.112;2024-02-23T04:16:40;95925.00;;;7.67;77.16
21096;BME280;10706;49.036;12.112;2024-02-23T04:19:05;95922.41;;;7.93;75.99
21096;BME280;10706;49.036;12.112;2024-02-23T04:21:31;95925.22;;;7.55;77.80
21096;BME280;10706;49.036;12.112;2024-02-23T04:23:57;95912.53;;;7.73;76.08
21096;BME280;10706;49.036;12.112;2024-02-23T04:26:23;95919.19;;;7.75;76.31
21096;BME280;10706;49.036;12.112;2024-02-23T04:28:49;95907.16;;;7.47;77.31
21096;BME280;10706;49.036;12.112;2024-02-23T04:31:14;95903.75;;;7.62;76.04
21096;BME280;10706;49.036;12.112;2024-02-23T04:33:40;95919.69;;;7.67;76.73
21096;BME280;10706;49.036;12.112;2024-02-23T04:36:07;95914.41;;;7.77;75.62
21096;BME280;10706;49.036;12.112;2024-02-23T04:38:33;95903.56;;;8.00;75.65
21096;BME280;10706;49.036;12.112;2024-02-23T04:41:03;95902.91;;;7.51;77.20
21096;BME280;10706;49.036;12.112;2024-02-23T04:43:30;95916.91;;;7.31;77.81
21096;BME280;10706;49.036;12.112;2024-02-23T04:45:55;95919.94;;;7.66;77.71
21096;BME280;10706;49.036;12.112;2024-02-23T04:48:21;95927.44;;;7.16;77.85
21096;BME280;10706;49.036;12.112;2024-02-23T04:50:47;95941.66;;;6.94;79.42
21096;BME280;10706;49.036;12.112;2024-02-23T04:53:12;95929.50;;;7.04;79.75
21096;BME280;10706;49.036;12.112;2024-02-23T04:55:38;95934.69;;;7.31;79.04
21096;BME280;10706;49.036;12.112;2024-02-23T04:58:05;95938.38;;;7.25;78.38
21096;BME280;10706;49.036;12.112;2024-02-23T05:00:31;95932.19;;;7.09;79.61
21096;BME280;10706;49.036;12.112;2024-02-23T05:03:02;95935.72;;;7.25;78.87
21096;BME280;10706;49.036;12.112;2024-02-23T05:05:30;95937.56;;;7.19;79.26
21096;BME280;10706;49.036;12.112;2024-02-23T05:07:56;95942.00;;;7.66;77.41
21096;BME280;10706;49.036;12.112;2024-02-23T05:10:21;95940.47;;;7.17;78.34
21096;BME280;10706;49.036;12.112;2024-02-23T05:12:49;95939.91;;;7.73;77.26
21096;BME280;10706;49.036;12.112;2024-02-23T05:15:14;95951.41;;;8.00;75.90
21096;BME280;10706;49.036;12.112;2024-02-23T05:17:40;95940.78;;;8.10;75.40
21096;BME280;10706;49.036;12.112;2024-02-23T05:20:07;95947.44;;;8.17;75.54
21096;BME280;10706;49.036;12.112;2024-02-23T05:22:36;95953.94;;;7.64;76.37
21096;BME280;10706;49.036;12.112;2024-02-23T05:25:02;95951.38;;;7.94;76.34
21096;BME280;10706;49.036;12.112;2024-02-23T05:27:30;95955.59;;;7.85;76.01
21096;BME280;10706;49.036;12.112;2024-02-23T05:29:56;95953.50;;;7.97;75.14
21096;BME280;10706;49.036;12.112;2024-02-23T05:32:22;95948.72;;;8.05;74.41
21096;BME280;10706;49.036;12.112;2024-02-23T05:34:48;95933.59;;;8.26;74.72
21096;BME280;10706;49.036;12.112;2024-02-23T05:37:17;95939.72;;;8.26;73.16
21096;BME280;10706;49.036;12.112;2024-02-23T05:39:43;95937.91;;;8.42;74.78
21096;BME280;10706;49.036;12.112;2024-02-23T05:42:10;95940.53;;;8.16;73.72
21096;BME280;10706;49.036;12.112;2024-02-23T05:44:36;95928.88;;;8.43;73.84
21096;BME280;10706;49.036;12.112;2024-02-23T05:47:02;95926.19;;;8.53;73.82
21096;BME280;10706;49.036;12.112;2024-02-23T05:49:27;95927.22;;;8.16;74.80
21096;BME280;10706;49.036;12.112;2024-02-23T05:51:53;95938.91;;;8.05;75.50
21096;BME280;10706;49.036;12.112;2024-02-23T05:54:19;95941.00;;;7.93;75.70
21096;BME280;10706;49.036;12.112;2024-02-23T05:56:45;95953.00;;;8.31;75.42
21096;BME280;10706;49.036;12.112;2024-02-23T05:59:11;95964.66;;;7.89;75.30
21096;BME280;10706;49.036;12.112;2024-02-23T06:01:37;95976.66;;;8.07;74.97
21096;BME280;10706;49.036;12.112;2024-02-23T06:04:03;95979.31;;;8.07;75.99
21096;BME280;10706;49.036;12.112;2024-02-23T06:06:29;95984.41;;;8.34;75.48
21096;BME280;10706;49.036;12.112;2024-02-23T06:08:55;95984.34;;;8.04;74.91
21096;BME280;10706;49.036;12.112;2024-02-23T06:11:21;95984.09;;;8.05;75.65
21096;BME280;10706;49.036;12.112;2024-02-23T06:13:47;95995.81;;;8.35;75.29
21096;BME280;10706;49.036;12.112;2024-02-23T06:16:13;95999.53;;;8.24;74.22
21096;BME280;10706;49.036;12.112;2024-02-23T06:18:49;96005.84;;;7.87;75.50
21096;BME280;10706;49.036;12.112;2024-02-23T06:21:17;96010.16;;;8.13;76.35
21096;BME280;10706;49.036;12.112;2024-02-23T06:23:44;96014.91;;;8.06;75.69
21096;BME280;10706;49.036;12.112;2024-02-23T06:26:10;96026.13;;;8.18;74.64
21096;BME280;10706;49.036;12.112;2024-02-23T06:28:37;96018.00;;;7.83;75.70
21096;BME280;10706;49.036;12.112;2024-02-23T06:31:10;96024.53;;;8.23;75.07
21096;BME280;10706;49.036;12.112;2024-02-23T06:33:36;96032.53;;;7.59;76.12
21096;BME280;10706;49.036;12.112;2024-02-23T06:36:02;96031.63;;;7.96;76.15
21096;BME280;10706;49.036;12.112;2024-02-23T06:38:28;96034.84;;;8.09;75.56
21096;BME280;10706;49.036;12.112;2024-02-23T06:40:54;96035.97;;;8.23;74.29
21096;BME280;10706;49.036;12.112;2024-02-23T06:43:24;96046.22;;;7.89;75.83
21096;BME280;10706;49.036;12.112;2024-02-23T06:45:50;96051.16;;;7.22;78.40
21096;BME280;10706;49.036;12.112;2024-02-23T06:48:16;96045.94;;;7.37;77.81
21096;BME280;10706;49.036;12.112;2024-02-23T06:50:42;96045.00;;;7.54;77.10
21096;BME280;10706;49.036;12.112;2024-02-23T06:53:08;96042.16;;;7.71;75.43
21096;BME280;10706;49.036;12.112;2024-02-23T06:55:37;96054.91;;;7.21;77.58
21096;BME280;10706;49.036;12.112;2024-02-23T06:58:03;96048.97;;;7.09;76.90
21096;BME280;10706;49.036;12.112;2024-02-23T07:00:32;96043.75;;;7.24;77.21
21096;BME280;10706;49.036;12.112;2024-02-23T07:02:58;96049.53;;;7.58;76.30
21096;BME280;10706;49.036;12.112;2024-02-23T07:05:25;96042.44;;;7.74;74.65
21096;BME280;10706;49.036;12.112;2024-02-23T07:07:51;96038.66;;;7.65;75.36
21096;BME280;10706;49.036;12.112;2024-02-23T07:10:16;96041.75;;;7.42;76.52
21096;BME280;10706;49.036;12.112;2024-02-23T07:12:43;96048.25;;;7.66;76.14
21096;BME280;10706;49.036;12.112;2024-02-23T07:15:10;96047.47;;;7.23;78.30
21096;BME280;10706;49.036;12.112;2024-02-23T07:17:36;96055.00;;;7.36;77.01
21096;BME280;10706;49.036;12.112;2024-02-23T07:20:01;96051.84;;;7.45;76.29
21096;BME280;10706;49.036;12.112;2024-02-23T07:22:34;96048.72;;;7.53;76.87
21096;BME280;10706;49.036;12.112;2024-02-23T07:25:00;96051.56;;;7.99;75.21
21096;BME280;10706;49.036;12.112;2024-02-23T07:27:29;96051.38;;;8.11;74.51
21096;BME280;10706;49.036;12.112;2024-02-23T07:29:58;96048.66;;;7.43;76.68
21096;BME280;10706;49.036;12.112;2024-02-23T07:32:25;96053.25;;;7.57;75.62
21096;BME280;10706;49.036;12.112;2024-02-23T07:34:50;96045.03;;;7.59;75.15
21096;BME280;10706;49.036;12.112;2024-02-23T07:37:16;96039.88;;;8.00;74.39
21096;BME280;10706;49.036;12.112;2024-02-23T07:39:42;96045.31;;;8.36;74.00
21096;BME280;10706;49.036;12.112;2024-02-23T07:42:08;96055.84;;;8.10;73.40
21096;BME280;10706;49.036;12.112;2024-02-23T07:44:36;96062.72;;;7.43;75.42
21096;BME280;10706;49.036;12.112;2024-02-23T07:47:03;96058.72;;;7.88;75.57
21096;BME280;10706;49.036;12.112;2024-02-23T07:49:29;96059.78;;;7.97;75.17
21096;BME280;10706;49.036;12.112;2024-02-23T07:51:55;96063.66;;;8.37;73.35
21096;BME280;10706;49.036;12.112;2024-02-23T07:54:21;96066.47;;;8.00;74.00
21096;BME280;10706;49.036;12.112;2024-02-23T07:56:46;96071.09;;;7.67;75.46
21096;BME280;10706;49.036;12.112;2024-02-23T07:59:12;96078.97;;;7.52;75.83
21096;BME280;10706;49.036;12.112;2024-02-23T08:01:38;96076.41;;;7.67;75.28
21096;BME280;10706;49.036;12.112;2024-02-23T08:04:05;96071.38;;;8.39;72.54
21096;BME280;10706;49.036;12.112;2024-02-23T08:06:31;96070.88;;;8.42;71.39
21096;BME280;10706;49.036;12.112;2024-02-23T08:08:57;96083.91;;;8.44;73.23
21096;BME280;10706;49.036;12.112;2024-02-23T08:11:22;96074.94;;;7.97;74.26
21096;BME280;10706;49.036;12.112;2024-02-23T08:13:48;96067.72;;;8.50;72.92
21096;BME280;10706;49.036;12.112;2024-02-23T08:16:16;96070.66;;;8.80;71.61
21096;BME280;10706;49.036;12.112;2024-02-23T08:18:43;96076.38;;;8.15;72.13
21096;BME280;10706;49.036;12.112;2024-02-23T08:21:10;96079.13;;;7.77;74.40
21096;BME280;10706;49.036;12.112;2024-02-23T08:23:36;96077.34;;;7.98;73.63
21096;BME280;10706;49.036;12.112;2024-02-23T08:26:02;96072.69;;;8.36;74.56
21096;BME280;10706;49.036;12.112;2024-02-23T08:28:28;96077.78;;;7.80;74.98
21096;BME280;10706;49.036;12.112;2024-02-23T08:30:54;96074.25;;;8.17;73.21
21096;BME280;10706;49.036;12.112;2024-02-23T08:33:20;96068.59;;;8.03;73.12
21096;BME280;10706;49.036;12.112;2024-02-23T08:35:46;96066.75;;;7.51;74.10
21096;BME280;10706;49.036;12.112;2024-02-23T08:38:14;96071.03;;;8.20;72.29
21096;BME280;10706;49.036;12.112;2024-02-23T08:40:40;96054.31;;;7.56;75.47
21096;BME280;10706;49.036;12.112;2024-02-23T08:43:06;96036.97;;;8.02;72.53
21096;BME280;10706;49.036;12.112;2024-02-23T08:45:31;96039.88;;;7.95;72.84
21096;BME280;10706;49.036;12.112;2024-02-23T08:47:57;96045.34;;;8.51;71.08
21096;BME280;10706;49.036;12.112;2024-02-23T08:50:23;96053.13;;;7.90;70.48
21096;BME280;10706;49.036;12.112;2024-02-23T08:52:49;96042.72;;;8.62;70.60
21096;BME280;10706;49.036;12.112;2024-02-23T08:55:15;96050.78;;;8.09;70.43
21096;BME280;10706;49.036;12.112;2024-02-23T08:57:41;96047.59;;;8.02;70.92
21096;BME280;10706;49.036;12.112;2024-02-23T09:00:08;96052.63;;;7.93;72.00
21096;BME280;10706;49.036;12.112;2024-02-23T09:02:34;96059.22;;;8.79;69.58
21096;BME280;10706;49.036;12.112;2024-02-23T09:05:01;96059.97;;;8.44;70.62
21096;BME280;10706;49.036;12.112;2024-02-23T09:07:27;96061.91;;;8.79;69.20
21096;BME280;10706;49.036;12.112;2024-02-23T09:09:52;96072.50;;;8.59;68.79
21096;BME280;10706;49.036;12.112;2024-02-23T09:12:19;96069.81;;;8.43;69.35
21096;BME280;10706;49.036;12.112;2024-02-23T09:15:23;96078.16;;;7.94;71.17
21096;BME280;10706;49.036;12.112;2024-02-23T09:17:49;96082.09;;;7.91;70.59
21096;BME280;10706;49.036;12.112;2024-02-23T09:20:16;96101.47;;;8.45;69.05
21096;BME280;10706;49.036;12.112;2024-02-23T09:22:41;96095.94;;;8.72;69.19
21096;BME280;10706;49.036;12.112;2024-02-23T09:25:07;96093.84;;;8.84;68.90
21096;BME280;10706;49.036;12.112;2024-02-23T09:27:34;96096.28;;;8.17;68.94
21096;BME280;10706;49.036;12.112;2024-02-23T09:30:02;96095.25;;;8.18;69.46
21096;BME280;10706;49.036;12.112;2024-02-23T09:32:28;96116.47;;;8.92;68.18
21096;BME280;10706;49.036;12.112;2024-02-23T09:34:54;96119.38;;;8.07;69.11
21096;BME280;10706;49.036;12.112;2024-02-23T09:37:19;96122.94;;;8.28;70.05
21096;BME280;10706;49.036;12.112;2024-02-23T09:39:46;96130.56;;;7.61;71.07
21096;BME280;10706;49.036;12.112;2024-02-23T09:42:12;96136.00;;;7.82;69.52
21096;BME280;10706;49.036;12.112;2024-02-23T09:44:37;96129.81;;;8.18;69.09
21096;BME280;10706;49.036;12.112;2024-02-23T09:47:05;96127.13;;;8.13;69.37
21096;BME280;10706;49.036;12.112;2024-02-23T09:49:40;96130.69;;;8.40;68.30
21096;BME280;10706;49.036;12.112;2024-02-23T09:52:10;96134.03;;;8.83;68.03
21096;BME280;10706;49.036;12.112;2024-02-23T09:54:39;96148.19;;;7.77;70.25
21096;BME280;10706;49.036;12.112;2024-02-23T09:57:08;96152.16;;;7.75;70.74
21096;BME280;10706;49.036;12.112;2024-02-23T09:59:35;96151.47;;;7.95;70.50
21096;BME280;10706;49.036;12.112;2024-02-23T10:02:03;96139.19;;;7.84;70.79
21096;BME280;10706;49.036;12.112;2024-02-23T10:04:32;96140.72;;;8.27;69.14
21096;BME280;10706;49.036;12.112;2024-02-23T10:06:58;96135.22;;;8.39;68.00
21096;BME280;10706;49.036;12.112;2024-02-23T10:09:23;96132.69;;;8.75;67.65
21096;BME280;10706;49.036;12.112;2024-02-23T10:11:55;96134.38;;;8.38;68.80
21096;BME280;10706;49.036;12.112;2024-02-23T10:14:21;96127.78;;;8.41;68.03
21096;BME280;10706;49.036;12.112;2024-02-23T10:16:47;96130.88;;;9.32;66.44
21096;BME280;10706;49.036;12.112;2024-02-23T10:19:18;96134.56;;;9.57;64.90
21096;BME280;10706;49.036;12.112;2024-02-23T10:21:45;96133.53;;;9.42;64.80
21096;BME280;10706;49.036;12.112;2024-02-23T10:24:11;96138.81;;;9.68;63.20
21096;BME280;10706;49.036;12.112;2024-02-23T10:26:37;96135.91;;;9.59;63.86
21096;BME280;10706;49.036;12.112;2024-02-23T10:29:02;96130.53;;;9.85;63.77
21096;BME280;10706;49.036;12.112;2024-02-23T10:31:32;96128.97;;;9.58;62.69
21096;BME280;10706;49.036;12.112;2024-02-23T10:34:00;96124.88;;;10.02;63.32
21096;BME280;10706;49.036;12.112;2024-02-23T10:36:33;96128.72;;;9.49;63.29
21096;BME280;10706;49.036;12.112;2024-02-23T10:39:03;96121.28;;;9.26;61.69
21096;BME280;10706;49.036;12.112;2024-02-23T10:41:35;96120.16;;;9.68;61.67
21096;BME280;10706;49.036;12.112;2024-02-23T10:44:03;96125.50;;;9.68;60.75
21096;BME280;10706;49.036;12.112;2024-02-23T10:46:33;96127.91;;;9.69;60.68
21096;BME280;10706;49.036;12.112;2024-02-23T10:49:00;96127.34;;;9.83;61.35
21096;BME280;10706;49.036;12.112;2024-02-23T10:51:26;96129.22;;;9.87;60.39
21096;BME280;10706;49.036;12.112;2024-02-23T10:53:53;96131.09;;;9.77;57.17
21096;BME280;10706;49.036;12.112;2024-02-23T10:56:19;96128.72;;;9.65;58.45
21096;BME280;10706;49.036;12.112;2024-02-23T10:58:46;96125.53;;;9.37;57.45
21096;BME280;10706;49.036;12.112;2024-02-23T11:01:12;96129.00;;;9.27;58.54
21096;BME280;10706;49.036;12.112;2024-02-23T11:03:43;96118.59;;;9.67;58.03
21096;BME280;10706;49.036;12.112;2024-02-23T11:06:12;96118.34;;;9.12;58.47
21096;BME280;10706;49.036;12.112;2024-02-23T11:08:38;96116.22;;;9.19;58.28
21096;BME280;10706;49.036;12.112;2024-02-23T11:11:18;96117.78;;;9.66;58.64
21096;BME280;10706;49.036;12.112;2024-02-23T11:13:56;96110.03;;;9.70;57.65
21096;BME280;10706;49.036;12.112;2024-02-23T11:16:23;96111.88;;;8.67;60.37
21096;BME280;10706;49.036;12.112;2024-02-23T11:19:04;96109.03;;;9.25;60.86
21096;BME280;10706;49.036;12.112;2024-02-23T11:21:38;96099.78;;;10.13;60.01
21096;BME280;10706;49.036;12.112;2024-02-23T11:24:05;96097.97;;;9.98;58.24
21096;BME280;10706;49.036;12.112;2024-02-23T11:26:31;96105.28;;;9.21;58.00
21096;BME280;10706;49.036;12.112;2024-02-23T11:29:10;96100.25;;;9.09;59.09
21096;BME280;10706;49.036;12.112;2024-02-23T11:31:45;96092.72;;;9.72;58.90
21096;BME280;10706;49.036;12.112;2024-02-23T11:34:11;96093.72;;;10.02;58.62
21096;BME280;10706;49.036;12.112;2024-02-23T11:36:38;96099.72;;;10.28;58.05
21096;BME280;10706;49.036;12.112;2024-02-23T11:39:04;96102.75;;;10.06;58.62
21096;BME280;10706;49.036;12.112;2024-02-23T11:41:31;96110.03;;;9.85;58.70
21096;BME280;10706;49.036;12.112;2024-02-23T11:43:57;96102.31;;;9.68;60.07
21096;BME280;10706;49.036;12.112;2024-02-23T11:46:26;96100.09;;;10.01;60.27
21096;BME280;10706;49.036;12.112;2024-02-23T11:48:52;96100.16;;;9.76;60.01
21096;BME280;10706;49.036;12.112;2024-02-23T11:51:21;96105.31;;;9.26;61.17
21096;BME280;10706;49.036;12.112;2024-02-23T11:53:49;96106.22;;;10.07;59.54
21096;BME280;10706;49.036;12.112;2024-02-23T11:56:15;96100.66;;;9.93;59.46
21096;BME280;10706;49.036;12.112;2024-02-23T11:58:42;96093.59;;;10.33;58.49
21096;BME280;10706;49.036;12.112;2024-02-23T12:01:08;96091.44;;;10.40;59.95
21096;BME280;10706;49.036;12.112;2024-02-23T12:03:34;96098.53;;;9.85;59.09
21096;BME280;10706;49.036;12.112;2024-02-23T12:06:01;96092.28;;;10.25;58.55
21096;BME280;10706;49.036;12.112;2024-02-23T12:08:29;96096.38;;;10.02;58.67
21096;BME280;10706;49.036;12.112;2024-02-23T12:10:56;96101.41;;;10.14;59.41
21096;BME280;10706;49.036;12.112;2024-02-23T12:13:22;96099.63;;;9.84;60.07
21096;BME280;10706;49.036;12.112;2024-02-23T12:15:54;96096.44;;;9.71;60.60
21096;BME280;10706;49.036;12.112;2024-02-23T12:18:23;96086.88;;;9.65;61.20
21096;BME280;10706;49.036;12.112;2024-02-23T12:20:52;96085.38;;;10.19;59.67
21096;BME280;10706;49.036;12.112;2024-02-23T12:23:18;96089.63;;;10.30;60.32
21096;BME280;10706;49.036;12.112;2024-02-23T12:25:57;96089.84;;;10.39;59.64
21096;BME280;10706;49.036;12.112;2024-02-23T12:28:23;96088.06;;;10.14;61.27
21096;BME280;10706;49.036;12.112;2024-02-23T12:31:03;96087.66;;;10.46;59.87
21096;BME280;10706;49.036;12.112;2024-02-23T12:33:35;96079.41;;;10.43;59.48
21096;BME280;10706;49.036;12.112;2024-02-23T12:36:03;96070.25;;;9.99;60.90
21096;BME280;10706;49.036;12.112;2024-02-23T12:38:30;96070.50;;;10.03;61.49
21096;BME280;10706;49.036;12.112;2024-02-23T12:40:56;96058.38;;;10.36;59.21
21096;BME280;10706;49.036;12.112;2024-02-23T12:43:22;96068.72;;;10.48;59.19
21096;BME280;10706;49.036;12.112;2024-02-23T12:45:55;96066.72;;;10.69;59.02
21096;BME280;10706;49.036;12.112;2024-02-23T12:48:22;96077.34;;;10.79;58.57
21096;BME280;10706;49.036;12.112;2024-02-23T12:50:49;96073.03;;;10.28;57.90
21096;BME280;10706;49.036;12.112;2024-02-23T12:53:32;96081.38;;;10.11;59.01
21096;BME280;10706;49.036;12.112;2024-02-23T12:56:03;96082.66;;;9.39;60.13